Brownstown, Michigan
Current Conditions -  °F | °C
As of 5:53 AM on Wednesday 22 Oct 2014 (Local Time) from KDTW Reporting Station
Overcast Overcast  
Wind Chill: 42°   Ceiling: 2000
Heat Index: 46°   Visibility: 10mi
Dew Point: 39°   Wind: 8mph
Humidity: 76%   Direction: 340°NNW
Pressure: 30.26"   Gusts: NA
Location:  42.1166°N, 83.4023°W
Report Text: KDTW 220953Z 34007KT 10SM OVC020 08/04 A3026 RMK AO2 SLP250 T00780039
Loading
Personal Weather Stations






























Interactive Weather Map
Tropical Storm Tracking
New forecast layout! Learn more

10-Day Weather Forecast

Advertisements
Track Severe Weather on mobile